Share

Pierce City, MO

Monett (KHFJ) Elev 1316 ft | 36.91 °N, 94.01 °W | Change Station

Current weather conditions updated 11 minutes ago

Clear
Clear
61 °F
Feels Like 61 °F
N
8
Wind Variable Wind from South
Sunrise 6:35 AM
Sunset 7:55 PM
Moon Waning Gibbous

Today is forecast to be nearly the same temperature as yesterday. Showers late tonight.

Pressure 30.15 in
Visibility 10.0 miles
Clouds Clear
Dew Point 50 °F
Humidity 68%
Rainfall 0.00 in
Snow Depth Not available.
UV 0 out of 16
Pollen 10.50 out of 12
Air Quality Not available.
Flu Activity Sporadic
METAR KHFJ 200855Z AUTO 18007KT 10SM CLR 16/10 A3015 RMK AO2

More Conditions Fewer Conditions

Pressure 30.15 in
Visibility 10.0 miles
Clouds Clear
Dew Point 50 °F
Humidity 68%
Rainfall 0.00 in
Snow Depth Not available.
UV 0 out of 16
Pollen 10.50 out of 12
Air Quality Not available.
Flu Activity Sporadic
METAR KHFJ 200855Z AUTO 18007KT 10SM CLR 16/10 A3015 RMK AO2

More Conditions Fewer Conditions

10-Day Weather Forecast

Almanac

Astronomy

Apr. 20, 2014 Rise Set
Actual Time 6:35 AM CDT 7:55 PM CDT
Civil Twilight 6:08 AM CDT 8:22 PM CDT
Nautical Twilight 5:35 AM CDT 8:54 PM CDT
Astronomical Twilight 5:02 AM CDT 9:28 PM CDT
Moon 12:32 AM CDT 10:59 AM CDT
Length of Visible Light 14h 14m
Length of Day
13h 19m
Tomorrow will be 2m 11s longer.
Waning Gibbous, 72% of the Moon is Illuminated
Today
Waning Gibbous
Apr 22
Last Quarter
Apr 29
New
May 6
First Quarter
May 14
Full

Today's Extremes

State Highs State Lows

Community

  • Sunny day at the coast-Cape Arago Lighthouse
    Sunny day at the coast-Cape Arago Lighthouse
  • Cherry Blossoms
    Cherry Blossoms
  • White-Crowned Sparrow
    White-Crowned Sparrow
  • New Day
    New Day
  • Happy Easter!
    Happy Easter!

WunderPhotos

Upload Photos

1,703,122 photos uploaded!

WunderBlogs® & News

Nearby

Snow Depth

Station Depth Elevation
No new snow has been reported.

Coastal Water Temperatures

Place Temperature
No Stations Reporting

Earthquake Activity

City Distance Mag. Time & Date
No recent earthquake activity has been reported nearby.
Minimum magnitude displayed is 2.5.

Nearby Weather Stations

Station Location Temp. Dew Point Humidity Wind Precip. Elev Updated Type
Monett, MO 59.9 °F 51 °F 73% ESE  at  1.8 mph 0.00 in / hr 1306 ft 4:06 AM CDT Normal
RAWS MT VERNON MO, La Russell, MO 57 °F 47 °F 69% SSE  at  7 mph 0.00 in / hr 1266 ft 3:00 AM CDT MADIS
the Wood, Reeds, MO 60.0 °F 48 °F 65% SE  at  2.0 mph 0.00 in / hr 1086 ft 12:40 AM CDT Normal

Show More Stations Show Fewer Stations

What do you think?

We're not finished. Please let us know what you like, what you don't like, and what you are still missing.